Time,TemperatureF,DewpointF,PressureIn,WindDirection,WindDirectionDegrees,WindSpeedMPH,WindSpeedGustMPH,Humidity,HourlyPrecipIn,Conditions,Clouds,dailyrainin,SoftwareType,DateUTC
2013-01-15 02:06:00,8.1,2.9,30.80,East,82,0.0,0.0,79,0.00,,,0.00,Wunderground v.1.15,2013-01-15 10:06:00,
2013-01-15 02:10:00,8.1,2.9,30.80,East,82,0.0,0.0,79,0.00,,,0.00,Wunderground v.1.15,2013-01-15 10:10:00,
2013-01-15 02:12:00,8.1,2.9,30.80,East,82,0.0,0.0,79,0.00,,,0.00,Wunderground v.1.15,2013-01-15 10:12:00,
2013-01-15 02:18:00,8.1,2.9,30.81,East,82,0.0,0.0,79,0.00,,,0.00,Wunderground v.1.15,2013-01-15 10:18:00,
2013-01-15 02:22:00,7.9,2.7,30.81,East,82,0.0,0.0,79,0.00,,,0.00,Wunderground v.1.15,2013-01-15 10:22:00,
2013-01-15 02:28:00,7.9,2.7,30.81,East,82,0.0,0.0,79,0.00,,,0.00,Wunderground v.1.15,2013-01-15 10:28:00,
2013-01-15 02:34:00,7.9,2.7,30.80,East,82,0.0,0.0,79,0.00,,,0.00,Wunderground v.1.15,2013-01-15 10:34:00,
2013-01-15 02:40:00,7.9,2.7,30.80,East,82,0.0,0.0,79,0.00,,,0.00,Wunderground v.1.15,2013-01-15 10:40:00,
2013-01-15 02:46:00,8.1,2.9,30.80,East,82,0.0,0.0,79,0.00,,,0.00,Wunderground v.1.15,2013-01-15 10:46:00,
2013-01-15 02:52:00,8.3,3.1,30.80,East,82,0.0,1.0,79,0.00,,,0.00,Wunderground v.1.15,2013-01-15 10:52:00,
2013-01-15 02:58:00,8.3,2.9,30.80,East,82,0.0,0.0,78,0.00,,,0.00,Wunderground v.1.15,2013-01-15 10:58:00,
2013-01-15 03:04:00,8.3,2.9,30.80,East,82,0.0,0.0,78,0.00,,,0.00,Wunderground v.1.15,2013-01-15 11:04:00,
2013-01-15 03:10:00,8.3,2.9,30.80,East,82,0.0,0.0,78,0.00,,,0.00,Wunderground v.1.15,2013-01-15 11:10:00,
2013-01-15 03:16:00,8.1,2.7,30.77,East,82,0.0,0.0,78,0.00,,,0.00,Wunderground v.1.15,2013-01-15 11:16:00,
2013-01-15 03:22:00,7.9,2.2,30.77,East,82,0.0,0.0,77,0.00,,,0.00,Wunderground v.1.15,2013-01-15 11:22:00,
2013-01-15 03:28:00,7.9,2.5,30.77,East,82,0.0,0.0,78,0.00,,,0.00,Wunderground v.1.15,2013-01-15 11:28:00,
2013-01-15 03:34:00,7.7,2.3,30.78,East,82,0.0,0.0,78,0.00,,,0.00,Wunderground v.1.15,2013-01-15 11:34:00,
2013-01-15 03:40:00,7.7,2.3,30.78,East,82,0.0,0.0,78,0.00,,,0.00,Wunderground v.1.15,2013-01-15 11:40:00,
2013-01-15 03:46:00,7.7,2.5,30.78,East,82,0.0,0.0,79,0.00,,,0.00,Wunderground v.1.15,2013-01-15 11:46:00,
2013-01-15 03:52:00,7.9,2.7,30.78,East,82,0.0,0.0,79,0.00,,,0.00,Wunderground v.1.15,2013-01-15 11:52:00,
2013-01-15 03:58:00,7.9,2.7,30.78,East,82,0.0,0.0,79,0.00,,,0.00,Wunderground v.1.15,2013-01-15 11:58:00,
2013-01-15 04:04:00,8.1,3.2,30.78,East,82,0.0,0.0,80,0.00,,,0.00,Wunderground v.1.15,2013-01-15 12:04:00,
2013-01-15 04:10:00,8.1,2.9,30.78,East,82,0.0,0.0,79,0.00,,,0.00,Wunderground v.1.15,2013-01-15 12:10:00,
2013-01-15 04:16:00,8.1,3.2,30.81,East,82,0.0,0.0,80,0.00,,,0.00,Wunderground v.1.15,2013-01-15 12:16:00,
2013-01-15 06:30:00,7.0,2.4,30.89,East,82,0.0,0.0,81,0.00,,,0.00,Wunderground v.1.15,2013-01-15 14:30:00,
2013-01-15 06:36:00,7.2,2.6,30.89,East,82,0.0,0.0,81,0.00,,,0.00,Wunderground v.1.15,2013-01-15 14:36:00,
2013-01-15 06:42:00,7.4,2.5,30.89,East,82,0.0,0.0,80,0.00,,,0.00,Wunderground v.1.15,2013-01-15 14:42:00,
2013-01-15 06:48:00,7.4,2.5,30.89,East,82,0.0,0.0,80,0.00,,,0.00,Wunderground v.1.15,2013-01-15 14:48:00,
2013-01-15 06:54:00,7.4,2.5,30.89,East,82,0.0,0.0,80,0.00,,,0.00,Wunderground v.1.15,2013-01-15 14:54:00,
2013-01-15 07:00:00,7.2,2.3,30.89,East,82,0.0,0.0,80,0.00,,,0.00,Wunderground v.1.15,2013-01-15 15:00:00,
2013-01-15 07:06:00,7.2,2.3,30.90,East,82,0.0,0.0,80,0.00,,,0.00,Wunderground v.1.15,2013-01-15 15:06:00,
2013-01-15 07:12:00,7.2,2.3,30.90,East,82,0.0,0.0,80,0.00,,,0.00,Wunderground v.1.15,2013-01-15 15:12:00,
2013-01-15 07:18:00,7.0,2.1,30.91,East,82,0.0,0.0,80,0.00,,,0.00,Wunderground v.1.15,2013-01-15 15:18:00,
2013-01-15 07:24:00,7.2,2.6,30.91,East,82,0.0,0.0,81,0.00,,,0.00,Wunderground v.1.15,2013-01-15 15:24:00,
2013-01-15 07:30:00,7.2,2.6,30.91,East,82,0.0,0.0,81,0.00,,,0.00,Wunderground v.1.15,2013-01-15 15:30:00,
2013-01-15 07:36:00,7.4,2.8,30.92,East,82,0.0,0.0,81,0.00,,,0.00,Wunderground v.1.15,2013-01-15 15:36:00,
2013-01-15 07:42:00,7.6,3.3,30.92,East,82,0.0,1.0,82,0.00,,,0.00,Wunderground v.1.15,2013-01-15 15:42:00,
2013-01-15 07:48:00,7.7,3.1,30.92,East,82,0.0,1.0,81,0.00,,,0.00,Wunderground v.1.15,2013-01-15 15:48:00,
2013-01-15 07:54:00,7.9,3.3,30.92,East,82,0.0,0.0,81,0.00,,,0.00,Wunderground v.1.15,2013-01-15 15:54:00,
2013-01-15 08:00:00,8.3,3.7,30.92,East,82,0.0,0.0,81,0.00,,,0.00,Wunderground v.1.15,2013-01-15 16:00:00,
2013-01-15 08:06:00,8.4,3.8,30.92,East,82,0.0,0.0,81,0.00,,,0.00,Wunderground v.1.15,2013-01-15 16:06:00,
2013-01-15 08:12:00,8.8,4.2,30.92,East,82,0.0,0.0,81,0.00,,,0.00,Wunderground v.1.15,2013-01-15 16:12:00,
2013-01-15 08:18:00,9.3,4.9,30.94,East,82,0.0,0.0,82,0.00,,,0.00,Wunderground v.1.15,2013-01-15 16:18:00,
2013-01-15 08:24:00,10.0,5.6,30.94,East,82,0.0,0.0,82,0.00,,,0.00,Wunderground v.1.15,2013-01-15 16:24:00,
2013-01-15 08:30:00,10.7,6.0,30.94,East,82,0.0,0.0,81,0.00,,,0.00,Wunderground v.1.15,2013-01-15 16:30:00,
2013-01-15 08:36:00,11.2,6.2,30.93,East,82,0.0,0.0,80,0.00,,,0.00,Wunderground v.1.15,2013-01-15 16:36:00,
2013-01-15 08:42:00,11.6,6.6,30.93,ENE,75,0.0,1.0,80,0.00,,,0.00,Wunderground v.1.15,2013-01-15 16:42:00,
2013-01-15 08:48:00,12.3,7.0,30.94,ENE,75,0.0,1.0,79,0.00,,,0.00,Wunderground v.1.15,2013-01-15 16:48:00,
2013-01-15 08:54:00,12.6,7.3,30.94,North,0,0.0,0.0,79,0.00,,,0.00,Wunderground v.1.15,2013-01-15 16:54:00,
2013-01-15 09:00:00,13.1,7.5,30.94,North,0,0.0,0.0,78,0.00,,,0.00,Wunderground v.1.15,2013-01-15 17:00:00,
2013-01-15 19:36:00,21.4,15.6,30.95,South,186,0.0,0.0,78,0.00,,,0.01,Wunderground v.1.15,2013-01-16 03:36:00,
2013-01-15 19:42:00,21.1,15.6,30.95,South,186,0.0,0.0,79,0.00,,,0.01,Wunderground v.1.15,2013-01-16 03:42:00,
2013-01-15 21:30:00,17.8,13.0,30.93,South,186,0.0,0.0,81,0.00,,,0.01,Wunderground v.1.15,2013-01-16 05:30:00,
2013-01-15 21:36:00,17.7,12.9,30.93,South,186,0.0,0.0,81,0.00,,,0.01,Wunderground v.1.15,2013-01-16 05:36:00,
2013-01-15 21:38:00,17.5,12.7,30.93,South,186,0.0,0.0,81,0.00,,,0.01,Wunderground v.1.15,2013-01-16 05:38:00,
2013-01-15 21:40:00,17.3,12.5,30.93,South,186,0.0,0.0,81,0.00,,,0.01,Wunderground v.1.15,2013-01-16 05:40:00,
2013-01-15 21:45:00,17.2,12.6,30.94,South,186,0.0,0.0,82,0.00,,,0.01,Wunderground v.1.15,2013-01-16 05:45:00,
2013-01-15 21:52:00,17.2,12.9,30.94,South,186,0.0,0.0,83,0.00,,,0.01,Wunderground v.1.15,2013-01-16 05:52:00,
2013-01-15 21:58:00,17.0,12.7,30.94,South,186,0.0,0.0,83,0.00,,,0.01,Wunderground v.1.15,2013-01-16 05:58:00,
2013-01-15 22:04:00,16.9,12.6,30.94,South,186,0.0,0.0,83,0.00,,,0.01,Wunderground v.1.15,2013-01-16 06:04:00,